createdAt,value
2022-10-15T00:01:30.610Z,100552.50
2022-10-15T00:03:59.016Z,100546.13
2022-10-15T00:06:26.893Z,100555.34
2022-10-15T00:08:56.587Z,100551.06
2022-10-15T00:11:27.786Z,100548.38
2022-10-15T00:13:57.082Z,100549.25
2022-10-15T00:16:26.915Z,100546.13
2022-10-15T00:18:57.750Z,100538.47
2022-10-15T00:21:25.858Z,100542.84
2022-10-15T00:23:54.060Z,100539.72
2022-10-15T00:26:26.307Z,100543.13
2022-10-15T00:28:56.556Z,100548.09
2022-10-15T00:31:27.290Z,100537.19
2022-10-15T00:33:57.324Z,100548.09
2022-10-15T00:36:27.908Z,100540.88
2022-10-15T00:38:56.528Z,100540.44
2022-10-15T00:41:28.766Z,100543.38
2022-10-15T00:43:59.139Z,100541.28
2022-10-15T00:46:31.213Z,100544.69
2022-10-15T00:51:43.264Z,100544.72
2022-10-15T00:54:12.901Z,100548.81
2022-10-15T00:56:46.621Z,100539.31
2022-10-15T00:59:16.003Z,100529.81
2022-10-15T01:01:43.980Z,100539.28
2022-10-15T01:04:13.204Z,100539.00
2022-10-15T01:06:41.907Z,100540.97
2022-10-15T01:09:09.972Z,100529.22
2022-10-15T01:11:44.191Z,100536.91
2022-10-15T01:14:24.557Z,100532.66
2022-10-15T01:17:00.132Z,100533.09
2022-10-15T01:19:45.635Z,100525.59
2022-10-15T01:22:22.404Z,100524.88
2022-10-15T01:25:04.684Z,100526.38
2022-10-15T01:27:38.477Z,100525.22
2022-10-15T01:30:26.713Z,100524.22
2022-10-15T01:33:28.268Z,100533.88
2022-10-15T01:36:06.397Z,100534.44
2022-10-15T01:38:52.779Z,100519.41
2022-10-15T01:41:27.991Z,100524.66
2022-10-15T01:44:02.285Z,100523.41
2022-10-15T01:46:38.113Z,100524.56
2022-10-15T01:49:08.103Z,100527.91
2022-10-15T01:51:38.656Z,100516.00
2022-10-15T01:54:10.008Z,100522.69
2022-10-15T01:56:39.917Z,100522.69
2022-10-15T01:59:10.574Z,100530.47
2022-10-15T02:04:21.977Z,100536.81
2022-10-15T02:06:54.229Z,100535.25
2022-10-15T02:09:31.554Z,100531.38
2022-10-15T02:12:10.370Z,100535.75
2022-10-15T02:14:45.890Z,100534.66
2022-10-15T02:17:17.138Z,100530.38
2022-10-15T02:19:51.391Z,100526.69
2022-10-15T02:22:23.556Z,100528.78
2022-10-15T02:24:57.553Z,100522.13
2022-10-15T02:27:28.156Z,100522.94
2022-10-15T02:29:58.813Z,100520.50
2022-10-15T02:32:29.694Z,100516.72
2022-10-15T02:34:58.443Z,100511.94
2022-10-15T02:37:30.017Z,100505.25
2022-10-15T02:39:58.215Z,100512.66
2022-10-15T02:42:28.172Z,100514.06
2022-10-15T02:44:56.232Z,100509.25
2022-10-15T02:49:54.231Z,100509.47
2022-10-15T02:52:22.623Z,100512.44
2022-10-15T02:54:51.008Z,100505.63
2022-10-15T02:57:18.876Z,100507.88
2022-10-15T02:59:46.911Z,100504.78
2022-10-15T03:02:16.966Z,100507.88
2022-10-15T03:04:47.423Z,100512.69
2022-10-15T03:07:16.794Z,100518.84
2022-10-15T03:09:44.661Z,100519.81
2022-10-15T03:12:14.551Z,100513.06
2022-10-15T03:14:42.436Z,100522.72
2022-10-15T03:17:10.292Z,100529.78
2022-10-15T03:19:38.400Z,100527.50
2022-10-15T03:22:06.390Z,100528.53
2022-10-15T03:24:35.779Z,100523.75
2022-10-15T03:27:03.897Z,100526.31
2022-10-15T03:29:31.821Z,100522.19
2022-10-15T03:31:59.786Z,100525.53
2022-10-15T03:34:27.756Z,100522.97
2022-10-15T03:36:55.588Z,100531.56
2022-10-15T03:39:23.524Z,100521.47
2022-10-15T03:41:55.479Z,100530.16
2022-10-15T03:44:23.391Z,100522.09
2022-10-15T03:46:51.781Z,100532.41
2022-10-15T03:49:19.903Z,100529.13
2022-10-15T03:51:47.852Z,100530.22
2022-10-15T03:54:15.759Z,100529.16
2022-10-15T03:56:43.771Z,100533.69
2022-10-15T03:59:13.077Z,100527.59
2022-10-15T04:01:40.961Z,100527.13
2022-10-15T04:04:09.029Z,100527.63
2022-10-15T04:06:36.924Z,100528.63
2022-10-15T04:09:05.061Z,100523.75
2022-10-15T04:11:33.196Z,100523.16
2022-10-15T04:14:01.141Z,100531.34
2022-10-15T04:16:30.375Z,100532.91
2022-10-15T04:18:59.081Z,100528.13
2022-10-15T04:21:27.289Z,100532.88
2022-10-15T04:23:55.224Z,100533.09
2022-10-15T04:26:23.216Z,100531.59
2022-10-15T04:28:51.148Z,100537.81
2022-10-15T04:31:19.090Z,100548.44
2022-10-15T04:33:51.018Z,100539.03
2022-10-15T04:36:18.949Z,100542.72
2022-10-15T04:38:46.901Z,100540.66
2022-10-15T04:41:15.119Z,100536.97
2022-10-15T04:43:42.996Z,100544.06
2022-10-15T04:46:10.949Z,100535.59
2022-10-15T04:48:43.009Z,100544.97
2022-10-15T04:51:14.570Z,100556.06
2022-10-15T04:53:42.849Z,100543.47
2022-10-15T04:56:17.859Z,100548.00
2022-10-15T04:58:47.179Z,100541.19
2022-10-15T05:01:17.512Z,100549.97
2022-10-15T05:03:47.114Z,100552.06
2022-10-15T05:06:18.678Z,100553.28
2022-10-15T05:08:47.563Z,100555.84
2022-10-15T05:11:18.299Z,100547.50
2022-10-15T05:13:46.373Z,100551.56
2022-10-15T05:16:15.886Z,100560.03
2022-10-15T05:18:45.591Z,100564.31
2022-10-15T05:21:13.984Z,100575.66
2022-10-15T05:23:44.203Z,100576.00
2022-10-15T05:26:14.030Z,100569.63
2022-10-15T05:28:42.410Z,100574.28
2022-10-15T05:31:17.613Z,100581.66
2022-10-15T05:33:47.456Z,100583.47
2022-10-15T05:36:18.479Z,100582.00
2022-10-15T05:38:48.920Z,100586.16
2022-10-15T08:39:32.505Z,100638.09
2022-10-15T08:42:03.944Z,100646.34
2022-10-15T08:44:35.313Z,100639.41
2022-10-15T08:47:09.446Z,100649.50
2022-10-15T08:49:45.295Z,100638.97
2022-10-15T08:52:21.301Z,100649.47
2022-10-15T08:54:50.768Z,100639.81
2022-10-15T08:57:27.327Z,100646.59
2022-10-15T09:00:02.195Z,100649.25
2022-10-15T09:02:37.758Z,100645.84
2022-10-15T09:05:27.191Z,100653.09
2022-10-15T09:08:01.080Z,100648.72
2022-10-15T09:10:37.053Z,100644.78
2022-10-15T09:13:13.951Z,100651.16
2022-10-15T09:15:50.531Z,100653.66
2022-10-15T09:18:23.566Z,100658.53
2022-10-15T09:20:51.985Z,100648.03
2022-10-15T09:23:22.894Z,100658.53
2022-10-15T09:25:59.407Z,100661.38
2022-10-15T09:28:32.388Z,100650.53
2022-10-15T09:31:01.095Z,100656.31
2022-10-15T09:33:39.133Z,100654.75
2022-10-15T09:36:18.027Z,100657.72
2022-10-15T09:38:57.245Z,100656.03
2022-10-15T09:41:39.821Z,100657.63
2022-10-15T09:44:13.941Z,100645.44
2022-10-15T09:46:46.189Z,100653.44
2022-10-15T09:49:19.198Z,100645.06
2022-10-15T09:51:54.745Z,100651.28
2022-10-15T09:54:27.805Z,100650.19
2022-10-15T09:56:58.663Z,100654.94
2022-10-15T09:59:26.981Z,100656.66
2022-10-15T10:02:00.553Z,100657.78
2022-10-15T10:04:30.063Z,100651.28
2022-10-15T10:06:59.326Z,100655.84
2022-10-15T10:09:32.927Z,100649.03
2022-10-15T10:12:05.208Z,100649.47
2022-10-15T10:14:36.228Z,100643.06
2022-10-15T10:17:17.396Z,100639.66
2022-10-15T10:19:46.295Z,100636.09
2022-10-15T10:22:16.881Z,100637.25
2022-10-15T10:24:45.360Z,100645.34
2022-10-15T10:27:26.202Z,100636.25
2022-10-15T10:29:58.180Z,100631.72
2022-10-15T10:32:30.736Z,100634.41
2022-10-15T10:35:00.514Z,100637.97
2022-10-15T10:37:29.710Z,100626.00
2022-10-15T10:40:00.108Z,100623.34
2022-10-15T10:42:34.624Z,100631.13
2022-10-15T10:45:21.183Z,100632.56
2022-10-15T10:47:49.433Z,100626.56
2022-10-15T10:50:32.700Z,100625.44
2022-10-15T10:53:15.893Z,100626.03
2022-10-15T10:55:46.694Z,100625.84
2022-10-15T10:58:23.439Z,100621.56
2022-10-15T11:00:55.833Z,100620.00
2022-10-15T11:03:33.372Z,100624.41
2022-10-15T11:06:25.748Z,100618.28
2022-10-15T11:09:04.436Z,100616.47
2022-10-15T11:11:38.308Z,100619.53
2022-10-15T11:14:21.724Z,100617.50
2022-10-15T11:16:59.824Z,100623.44
2022-10-15T11:19:59.652Z,100617.72
2022-10-15T11:22:45.096Z,100621.22
2022-10-15T11:25:23.731Z,100610.25
2022-10-15T11:28:01.404Z,100613.66
2022-10-15T11:30:42.402Z,100611.66
2022-10-15T11:33:25.532Z,100603.38
2022-10-15T11:36:02.168Z,100613.97
2022-10-15T11:38:43.311Z,100601.81
2022-10-15T11:41:35.041Z,100593.34
2022-10-15T11:44:23.210Z,100605.19
2022-10-15T11:47:08.508Z,100603.53
2022-10-15T11:49:49.181Z,100602.53
2022-10-15T11:52:43.627Z,100603.53
2022-10-15T11:55:17.293Z,100603.44
2022-10-15T11:57:48.260Z,100598.47
2022-10-15T12:00:30.036Z,100601.22
2022-10-15T12:03:06.548Z,100601.13
2022-10-15T12:05:39.184Z,100597.13
2022-10-15T12:08:10.992Z,100590.25
2022-10-15T12:10:58.843Z,100582.47
2022-10-15T12:13:35.650Z,100581.56
2022-10-15T12:16:13.463Z,100585.38
2022-10-15T12:18:49.625Z,100574.13
2022-10-15T12:21:39.182Z,100574.38
2022-10-15T12:24:27.893Z,100571.91
2022-10-15T12:26:57.541Z,100563.59
2022-10-15T12:29:28.813Z,100554.13
2022-10-15T12:31:57.145Z,100549.66
2022-10-15T12:34:38.349Z,100548.06
2022-10-15T12:37:15.919Z,100544.50
2022-10-15T12:39:52.648Z,100538.53
2022-10-15T12:42:27.143Z,100531.75
2022-10-15T12:44:56.200Z,100525.00
2022-10-15T12:47:48.567Z,100525.47
2022-10-15T12:50:19.978Z,100532.72
2022-10-15T12:53:00.368Z,100528.69
2022-10-15T12:55:35.517Z,100535.19
2022-10-15T12:58:36.515Z,100545.97
2022-10-15T13:01:08.238Z,100540.44
2022-10-15T13:03:40.200Z,100545.75
2022-10-15T13:06:17.014Z,100549.00
2022-10-15T13:08:48.093Z,100550.84
2022-10-15T13:11:22.474Z,100554.53
2022-10-15T13:13:57.640Z,100556.97
2022-10-15T13:16:25.560Z,100546.59
2022-10-15T13:18:56.648Z,100547.09
2022-10-15T13:21:44.700Z,100555.63
2022-10-15T13:24:13.285Z,100559.44
2022-10-15T13:26:41.049Z,100541.19
2022-10-15T13:29:17.555Z,100539.59
2022-10-15T13:31:46.048Z,100539.09
2022-10-15T13:34:22.613Z,100545.28
2022-10-15T13:36:51.016Z,100540.59
2022-10-15T13:39:30.716Z,100544.28
2022-10-15T13:42:09.832Z,100531.44
2022-10-15T13:44:39.134Z,100534.94
2022-10-15T13:47:25.818Z,100532.09
2022-10-15T13:50:11.531Z,100519.03
2022-10-15T13:52:41.518Z,100520.34
2022-10-15T13:55:18.780Z,100513.91
2022-10-15T13:57:47.536Z,100507.88
2022-10-15T14:00:24.849Z,100504.44
2022-10-15T14:03:09.801Z,100490.22
2022-10-15T14:05:38.040Z,100486.25
2022-10-15T14:08:06.523Z,100494.78
2022-10-15T14:10:34.489Z,100509.53
2022-10-15T14:13:02.689Z,100501.22
2022-10-15T14:15:49.488Z,100509.69
2022-10-15T14:18:20.058Z,100498.34
2022-10-15T14:20:49.051Z,100488.88
2022-10-15T14:23:21.791Z,100481.47
2022-10-15T14:25:55.550Z,100490.00
2022-10-15T14:28:25.078Z,100494.97
2022-10-15T14:30:55.548Z,100480.78
2022-10-15T14:33:40.443Z,100484.16
2022-10-15T14:36:12.239Z,100482.78
2022-10-15T14:38:41.069Z,100481.16
2022-10-15T14:41:25.788Z,100481.94
2022-10-15T14:44:17.989Z,100488.59
2022-10-15T14:46:49.786Z,100479.72
2022-10-15T14:49:25.927Z,100476.38
2022-10-15T14:52:00.383Z,100473.78
2022-10-15T14:54:37.980Z,100471.63
2022-10-15T14:57:05.989Z,100476.09
2022-10-15T14:59:38.514Z,100479.19
2022-10-15T15:02:14.893Z,100472.50
2022-10-15T15:04:44.809Z,100483.06
2022-10-15T15:07:18.560Z,100480.75
2022-10-15T15:09:50.836Z,100482.94
2022-10-15T15:12:27.684Z,100474.50
2022-10-15T15:14:56.497Z,100475.47
2022-10-15T15:17:28.606Z,100473.38
2022-10-15T15:19:59.694Z,100477.34
2022-10-15T15:22:31.566Z,100474.13
2022-10-15T15:25:01.258Z,100469.09
2022-10-15T15:27:30.984Z,100455.25
2022-10-15T15:29:59.498Z,100459.69
2022-10-15T15:32:30.864Z,100466.94
2022-10-15T15:34:59.327Z,100479.03
2022-10-15T15:37:27.746Z,100478.94
2022-10-15T15:39:56.532Z,100487.88
2022-10-15T15:42:26.387Z,100482.34
2022-10-15T15:44:54.508Z,100487.34
2022-10-15T15:47:22.536Z,100484.97
2022-10-15T15:49:51.706Z,100495.06
2022-10-15T15:52:19.692Z,100496.97
2022-10-15T15:54:47.905Z,100489.72
2022-10-15T15:57:15.853Z,100497.28
2022-10-15T15:59:43.704Z,100492.47
2022-10-15T16:02:14.436Z,100483.69
2022-10-15T16:04:42.303Z,100475.47
2022-10-15T16:07:13.471Z,100471.38
2022-10-15T16:09:41.826Z,100465.34
2022-10-15T16:12:09.776Z,100478.97
2022-10-15T16:14:37.576Z,100474.72
2022-10-15T16:17:05.651Z,100482.28
2022-10-15T16:19:33.400Z,100482.56
2022-10-15T16:22:01.160Z,100474.94
2022-10-15T16:24:30.586Z,100482.72
2022-10-15T16:26:58.338Z,100477.47
2022-10-15T16:29:26.424Z,100472.63
2022-10-15T16:31:54.263Z,100480.72
2022-10-15T16:34:22.200Z,100481.47
2022-10-15T16:36:50.324Z,100480.56
2022-10-15T16:39:18.628Z,100475.31
2022-10-15T16:41:47.890Z,100480.63
2022-10-15T16:44:15.678Z,100481.47
2022-10-15T16:46:44.549Z,100485.00
2022-10-15T16:49:12.476Z,100483.88
2022-10-15T16:51:42.858Z,100477.63
2022-10-15T16:54:14.044Z,100481.50
2022-10-15T16:56:41.993Z,100482.34
2022-10-15T16:59:11.374Z,100488.59
2022-10-15T17:01:39.209Z,100484.34
2022-10-15T17:04:07.130Z,100487.75
2022-10-15T17:06:34.974Z,100495.13
2022-10-15T17:09:04.885Z,100489.88
2022-10-15T17:11:34.780Z,100491.22
2022-10-15T17:14:06.147Z,100490.38
2022-10-15T17:16:38.061Z,100498.44
2022-10-15T17:19:06.117Z,100489.91
2022-10-15T17:21:34.695Z,100491.38
2022-10-15T17:24:05.237Z,100502.59
2022-10-15T17:26:37.070Z,100499.72
2022-10-15T17:29:05.942Z,100502.09
2022-10-15T17:31:35.510Z,100504.56
2022-10-15T17:34:06.186Z,100504.41
2022-10-15T17:36:39.408Z,100501.84
2022-10-15T17:39:07.330Z,100508.38
2022-10-15T17:41:35.195Z,100504.00
2022-10-15T17:44:03.082Z,100508.53
2022-10-15T17:46:31.138Z,100506.97
2022-10-15T17:49:00.796Z,100515.34
2022-10-15T17:51:30.528Z,100518.47
2022-10-15T17:53:59.963Z,100521.31
2022-10-15T17:56:29.545Z,100515.06
2022-10-15T17:58:57.927Z,100520.19
2022-10-15T18:01:39.339Z,100525.88
2022-10-15T18:04:17.721Z,100516.78
2022-10-15T18:06:46.212Z,100522.63
2022-10-15T18:09:14.303Z,100524.47
2022-10-15T18:11:42.478Z,100524.47
2022-10-15T18:14:10.605Z,100523.19
2022-10-15T18:16:38.619Z,100525.88
2022-10-15T18:19:06.948Z,100517.66
2022-10-15T18:21:36.329Z,100511.56
2022-10-15T18:24:04.210Z,100519.63
2022-10-15T18:26:32.319Z,100526.75
2022-10-15T18:29:00.201Z,100523.59
2022-10-15T18:31:28.205Z,100522.03
2022-10-15T18:33:59.361Z,100536.53
2022-10-15T18:36:30.235Z,100535.97
2022-10-15T18:39:00.477Z,100538.91
2022-10-15T18:41:30.513Z,100546.59
2022-10-15T18:44:00.513Z,100553.97
2022-10-15T18:46:28.733Z,100548.56
2022-10-15T18:48:56.892Z,100558.34
2022-10-15T18:51:25.238Z,100559.91
2022-10-15T18:53:53.368Z,100566.16
2022-10-15T18:56:23.338Z,100567.72
2022-10-15T18:58:52.617Z,100570.28
2022-10-15T19:01:29.648Z,100566.03
2022-10-15T19:03:58.460Z,100576.94
2022-10-15T19:06:29.322Z,100586.72
2022-10-15T19:09:00.504Z,100592.13
2022-10-15T19:11:30.659Z,100588.16
2022-10-15T19:13:59.403Z,100592.56
2022-10-15T19:16:27.646Z,100590.44
2022-10-15T19:18:55.881Z,100591.56
2022-10-15T19:21:23.957Z,100599.66
2022-10-15T19:23:53.618Z,100593.25
2022-10-15T19:26:21.542Z,100598.22
2022-10-15T19:28:51.855Z,100589.56
2022-10-15T19:31:24.246Z,100600.34
2022-10-15T19:33:52.289Z,100594.66
2022-10-15T19:36:21.723Z,100605.75
2022-10-15T19:38:49.981Z,100606.31
2022-10-15T19:41:18.158Z,100601.06
2022-10-15T19:43:46.333Z,100608.44
2022-10-15T19:46:15.981Z,100602.19
2022-10-15T19:48:44.320Z,100603.63
2022-10-15T19:51:12.665Z,100607.44
2022-10-15T19:53:41.070Z,100606.47
2022-10-15T19:56:11.513Z,100603.50
2022-10-15T19:58:39.414Z,100610.56
2022-10-15T20:01:07.513Z,100620.19
2022-10-15T20:03:36.896Z,100618.50
2022-10-15T20:06:07.864Z,100627.75
2022-10-15T20:08:36.105Z,100631.41
2022-10-15T20:11:08.228Z,100635.69
2022-10-15T20:13:37.415Z,100632.56
2022-10-15T20:16:07.301Z,100641.34
2022-10-15T20:18:37.950Z,100650.31
2022-10-15T20:21:09.247Z,100643.34
2022-10-15T20:23:38.256Z,100648.44
2022-10-15T20:26:07.336Z,100653.97
2022-10-15T20:28:37.071Z,100654.13
2022-10-15T20:31:09.254Z,100649.59
2022-10-15T20:33:39.212Z,100656.09
2022-10-15T20:36:08.738Z,100664.34
2022-10-15T20:38:38.070Z,100673.28
2022-10-15T20:41:11.025Z,100678.81
2022-10-15T20:43:39.486Z,100685.63
2022-10-15T20:46:12.707Z,100691.03
2022-10-15T20:48:43.750Z,100690.88
2022-10-15T20:51:13.506Z,100693.84
2022-10-15T20:53:41.778Z,100698.53
2022-10-15T20:56:09.886Z,100692.19
2022-10-15T20:58:37.756Z,100705.50
2022-10-15T21:01:07.750Z,100712.72
2022-10-15T21:03:35.837Z,100709.44
2022-10-15T21:06:05.470Z,100724.91
2022-10-15T21:08:33.420Z,100713.28
2022-10-15T21:11:04.801Z,100724.78
2022-10-15T21:13:32.911Z,100731.00
2022-10-15T21:16:01.018Z,100733.28
2022-10-15T21:18:29.079Z,100742.03
2022-10-15T21:21:01.352Z,100749.16
2022-10-15T21:23:31.383Z,100751.97
2022-10-15T21:26:04.647Z,100750.84
2022-10-15T21:28:32.746Z,100759.66
2022-10-15T21:31:00.721Z,100753.16
2022-10-15T21:33:30.138Z,100760.50
2022-10-15T21:35:58.119Z,100762.19
2022-10-15T21:38:25.863Z,100767.16
2022-10-15T21:40:55.155Z,100776.78
2022-10-15T21:43:23.285Z,100777.66
2022-10-15T21:45:51.071Z,100784.88
2022-10-15T21:48:19.006Z,100785.53
2022-10-15T21:50:48.009Z,100796.03
2022-10-15T21:53:16.181Z,100793.13
2022-10-15T21:55:54.422Z,100796.63
2022-10-15T21:58:22.798Z,100801.84
2022-10-15T22:00:50.638Z,100803.03
2022-10-15T22:03:18.538Z,100814.09
2022-10-15T22:05:46.321Z,100810.06
2022-10-15T22:08:14.107Z,100811.47
2022-10-15T22:10:42.104Z,100809.34
2022-10-15T22:13:11.261Z,100813.16
2022-10-15T22:15:39.057Z,100809.00
2022-10-15T22:18:07.075Z,100811.69
2022-10-15T22:20:35.081Z,100812.84
2022-10-15T22:23:02.958Z,100810.72
2022-10-15T22:25:31.077Z,100821.63
2022-10-15T22:27:58.986Z,100818.22
2022-10-15T22:30:28.196Z,100819.31
2022-10-15T22:32:56.149Z,100812.75
2022-10-15T22:35:24.160Z,100827.19
2022-10-15T22:37:52.947Z,100826.00
2022-10-15T22:40:20.845Z,100828.81
2022-10-15T22:42:48.666Z,100820.03
2022-10-15T22:45:16.791Z,100822.84
2022-10-15T22:47:46.235Z,100824.22
2022-10-15T22:50:14.089Z,100823.13
2022-10-15T22:52:42.069Z,100818.97
2022-10-15T22:55:14.098Z,100820.09
2022-10-15T22:57:41.957Z,100821.06
2022-10-15T23:00:11.459Z,100820.59
2022-10-15T23:02:39.735Z,100822.31
2022-10-15T23:05:09.670Z,100832.34
2022-10-15T23:07:38.196Z,100829.28
2022-10-15T23:10:06.960Z,100825.03
2022-10-15T23:12:37.166Z,100838.59
2022-10-15T23:15:05.969Z,100835.31
2022-10-15T23:17:34.258Z,100831.03
2022-10-15T23:20:02.099Z,100833.44
2022-10-15T23:22:31.301Z,100834.16
2022-10-15T23:24:59.788Z,100840.56
2022-10-15T23:27:28.719Z,100835.81
2022-10-15T23:30:07.453Z,100839.47
2022-10-15T23:32:44.682Z,100847.28
2022-10-15T23:35:12.978Z,100840.19
2022-10-15T23:37:43.062Z,100839.97
2022-10-15T23:40:12.040Z,100847.53
2022-10-15T23:42:39.927Z,100842.88
2022-10-15T23:45:08.374Z,100835.53
2022-10-15T23:47:36.236Z,100838.97
2022-10-15T23:50:04.408Z,100846.66
2022-10-15T23:52:32.820Z,100851.19
2022-10-15T23:55:02.138Z,100848.75
2022-10-15T23:57:29.894Z,100850.22
2022-10-15T23:59:57.632Z,100849.38
